首页
METAR-TAF:

METAR-TAF

机场 :

布里奇波特, 康乃狄克州, 美国

纬度: 41-09-30N, 经度: 073-07-44W, 海拔: 3米

当前天气观测

该预报发布于39分钟前的00:52 UTC
风速12节,风向西,有时为20节阵风
温度 8°C
湿度 53%
气压 1015 hPa
能見度: 16.1公里
阴天层高于7000英尺

METAR: KBDR 070052Z 28012G20KT 10SM OVC070 08/M01 A2998 RMK AO2 SLP153 T00831011

时间: 20:31 (01:31 UTC)

预报

该预报发布于2小时和5分钟前的23:26 UTC
预报有效从07日的 00点(UTC)到 07日的 24点(UTC)
风速13节,风向西转西南,有时为18节阵风
能見度: 10公里
多云层高于5000英尺
从 07日的 0200点(UTC)
风速12节,风向西转西北,有时为20节阵风
能見度: 10公里
多云层高于5000英尺
从 07日的 0300点(UTC)
风速12节,风向西北,有时为19节阵风
能見度: 10公里
散云层高于5000英尺
从 07日的 0500点(UTC)
风速8节,风向北转西北
能見度: 10公里
天空无云
从 07日的 2300点(UTC)
风速7节,风向西北
能見度: 10公里
少量云层高于25000英尺

TAF: KBDR 062326Z 0700/0724 25013G18KT P6SM BKN050 FM070200 29012G20KT P6SM BKN050 FM070300 32012G19KT P6SM SCT050 FM070500 33008KT P6SM SKC FM072300 32007KT P6SM FEW250

超过4000个机场的气象观测和天气预报(METAR&TAF报告)。

可查询的气象台以黄色和红色小点在地图上表示。

将鼠标移到小点上方,可查看气象台名称。

然后点击查看天气观测和预报。

如需切换地图:点击带黑十字的绿色按钮放大地图;点击带横线的绿色按钮缩小地图;或者点击绿色箭头查看邻近地区的地图。


METAR-TAF: